createdAt,value
2023-04-29T00:01:07.466Z,97238.16
2023-04-29T00:03:36.055Z,97231.19
2023-04-29T00:06:04.435Z,97210.50
2023-04-29T00:08:32.639Z,97210.16
2023-04-29T00:11:00.792Z,97191.44
2023-04-29T00:13:28.894Z,97192.94
2023-04-29T00:15:58.631Z,97180.06
2023-04-29T00:18:26.746Z,97174.88
2023-04-29T00:20:54.901Z,97200.28
2023-04-29T00:23:23.086Z,97195.66
2023-04-29T00:25:53.595Z,97171.63
2023-04-29T00:28:21.898Z,97177.44
2023-04-29T00:30:50.138Z,97185.00
2023-04-29T00:33:19.714Z,97188.94
2023-04-29T00:35:48.320Z,97194.47
2023-04-29T00:38:16.585Z,97190.47
2023-04-29T00:40:44.939Z,97114.06
2023-04-29T00:43:13.264Z,97115.09
2023-04-29T00:45:41.524Z,97241.59
2023-04-29T00:48:09.837Z,97237.41
2023-04-29T00:50:39.482Z,97146.41
2023-04-29T00:53:08.212Z,97243.09
2023-04-29T00:55:38.457Z,97248.41
2023-04-29T00:58:06.705Z,97224.53
2023-04-29T01:00:34.990Z,97258.38
2023-04-29T01:03:04.371Z,97252.22
2023-04-29T01:05:33.119Z,97235.91
2023-04-29T01:08:18.441Z,97256.69
2023-04-29T01:10:54.476Z,97258.72
2023-04-29T01:13:31.853Z,97210.06
2023-04-29T01:16:03.990Z,97235.94
2023-04-29T01:18:38.086Z,97251.66
2023-04-29T01:21:06.370Z,97213.09
2023-04-29T01:23:35.833Z,97250.69
2023-04-29T01:26:05.720Z,97249.72
2023-04-29T01:28:46.127Z,97233.63
2023-04-29T01:31:21.701Z,97172.47
2023-04-29T01:33:56.524Z,97270.16
2023-04-29T01:36:35.644Z,97230.59
2023-04-29T01:39:15.082Z,97252.66
2023-04-29T01:41:45.759Z,97254.31
2023-04-29T01:44:18.006Z,97258.69
2023-04-29T01:46:51.824Z,97260.47
2023-04-29T01:49:22.338Z,97263.09
2023-04-29T01:51:50.758Z,97258.69
2023-04-29T01:54:21.154Z,97233.88
2023-04-29T01:56:49.670Z,97249.19
2023-04-29T01:59:17.830Z,97267.16
2023-04-29T02:01:45.923Z,97266.22
2023-04-29T02:04:14.067Z,97259.41
2023-04-29T02:06:42.278Z,97264.78
2023-04-29T02:09:10.414Z,97264.06
2023-04-29T02:11:39.990Z,97262.44
2023-04-29T02:14:08.174Z,97236.69
2023-04-29T02:16:36.361Z,97264.19
2023-04-29T02:19:04.586Z,97261.66
2023-04-29T02:21:33.015Z,97230.16
2023-04-29T02:24:01.113Z,97256.78
2023-04-29T02:26:29.239Z,97245.78
2023-04-29T02:28:58.878Z,97253.28
2023-04-29T02:31:27.021Z,97249.19
2023-04-29T02:33:55.761Z,97253.63
2023-04-29T02:36:24.751Z,97247.94
2023-04-29T02:38:55.311Z,97263.44
2023-04-29T02:41:23.748Z,97270.25
2023-04-29T02:43:51.900Z,97248.84
2023-04-29T02:46:21.565Z,97266.19
2023-04-29T02:48:49.787Z,97255.31
2023-04-29T02:51:17.999Z,97280.56
2023-04-29T02:53:46.162Z,97256.16
2023-04-29T02:56:14.256Z,97270.03
2023-04-29T02:58:42.959Z,97273.31
2023-04-29T03:01:11.355Z,97273.25
2023-04-29T03:03:41.211Z,97269.78
2023-04-29T03:06:09.575Z,97269.25
2023-04-29T03:08:37.730Z,97265.09
2023-04-29T03:11:05.934Z,97267.78
2023-04-29T03:13:34.092Z,97271.25
2023-04-29T03:16:02.306Z,97271.19
2023-04-29T03:18:30.484Z,97267.59
2023-04-29T03:21:00.196Z,97230.75
2023-04-29T03:23:28.372Z,97266.56
2023-04-29T03:25:56.875Z,97262.56
2023-04-29T03:28:25.188Z,97263.69
2023-04-29T03:30:53.357Z,97259.41
2023-04-29T03:33:21.537Z,97261.16
2023-04-29T03:35:49.692Z,97256.75
2023-04-29T03:38:19.296Z,97258.53
2023-04-29T03:40:47.449Z,97261.94
2023-04-29T03:43:15.596Z,97263.53
2023-04-29T03:45:43.765Z,97247.22
2023-04-29T03:48:12.639Z,97261.03
2023-04-29T03:50:40.795Z,97254.66
2023-04-29T03:53:09.095Z,97247.16
2023-04-29T03:55:38.640Z,97249.72
2023-04-29T03:58:06.775Z,97260.25
2023-04-29T04:00:35.036Z,97257.63
2023-04-29T04:03:05.544Z,97240.41
2023-04-29T04:05:34.138Z,97238.66
2023-04-29T04:08:02.334Z,97259.38
2023-04-29T04:10:30.533Z,97256.72
2023-04-29T04:13:00.063Z,97259.22
2023-04-29T04:15:28.250Z,97165.56
2023-04-29T04:17:56.492Z,97261.28
2023-04-29T04:20:24.640Z,97258.34
2023-04-29T04:22:54.888Z,97140.09
2023-04-29T04:25:23.035Z,97254.88
2023-04-29T04:27:51.232Z,97278.03
2023-04-29T04:30:20.920Z,97272.59
2023-04-29T04:32:49.186Z,97252.47
2023-04-29T04:35:17.404Z,97272.06
2023-04-29T04:37:45.598Z,97282.66
2023-04-29T04:40:14.835Z,97272.28
2023-04-29T04:42:42.947Z,97266.25
2023-04-29T04:45:12.082Z,97260.03
2023-04-29T04:47:43.315Z,97271.22
2023-04-29T04:50:12.024Z,97271.22
2023-04-29T04:52:40.583Z,97267.78
2023-04-29T04:55:09.985Z,97272.84
2023-04-29T04:57:38.115Z,97272.22
2023-04-29T05:00:07.584Z,97264.34
2023-04-29T05:02:36.106Z,97283.63
2023-04-29T05:05:06.392Z,97273.47
2023-04-29T05:07:36.067Z,97273.72
2023-04-29T05:10:04.898Z,97276.66
2023-04-29T05:12:33.237Z,97219.34
2023-04-29T05:15:01.441Z,97287.63
2023-04-29T05:17:29.684Z,97298.41
2023-04-29T05:19:58.061Z,97285.06
2023-04-29T05:22:27.666Z,97294.00
2023-04-29T05:25:02.590Z,97269.31
2023-04-29T05:27:31.157Z,97277.97
2023-04-29T05:29:59.368Z,97277.59
2023-04-29T05:32:27.640Z,97276.72
2023-04-29T05:34:55.884Z,97215.38
2023-04-29T05:37:24.281Z,97261.00
2023-04-29T05:39:54.093Z,97296.50
2023-04-29T05:42:23.616Z,97300.63
2023-04-29T05:44:52.115Z,97311.94
2023-04-29T05:47:20.435Z,97309.13
2023-04-29T05:49:48.668Z,97308.63
2023-04-29T05:52:16.928Z,97273.53
2023-04-29T05:54:45.079Z,97301.22
2023-04-29T05:57:14.612Z,97299.44
2023-04-29T05:59:42.842Z,97086.69
2023-04-29T06:02:11.950Z,97301.47
2023-04-29T06:04:41.799Z,97308.00
2023-04-29T06:07:10.481Z,97275.94
2023-04-29T06:09:38.782Z,97303.56
2023-04-29T06:12:07.256Z,97300.53
2023-04-29T06:14:36.885Z,97310.44
2023-04-29T06:17:05.185Z,97306.78
2023-04-29T06:19:34.181Z,97286.16
2023-04-29T06:22:02.367Z,97299.72
2023-04-29T06:24:30.520Z,97305.38
2023-04-29T06:26:58.722Z,97280.91
2023-04-29T06:29:26.869Z,97276.22
2023-04-29T06:31:56.518Z,97307.81
2023-04-29T06:34:24.754Z,97288.44
2023-04-29T06:36:52.943Z,97310.97
2023-04-29T06:39:21.190Z,97301.44
2023-04-29T06:41:49.354Z,97297.19
2023-04-29T06:44:19.020Z,97287.03
2023-04-29T06:46:47.459Z,97284.94
2023-04-29T06:49:17.248Z,97291.06
2023-04-29T06:51:45.371Z,97278.28
2023-04-29T06:54:13.624Z,97299.00
2023-04-29T06:56:41.874Z,97266.31
2023-04-29T06:59:12.311Z,97227.38
2023-04-29T07:01:43.431Z,97293.25
2023-04-29T07:04:13.205Z,97300.56
2023-04-29T07:06:46.914Z,97274.34
2023-04-29T07:09:15.434Z,97295.19
2023-04-29T07:11:43.745Z,97230.13
2023-04-29T07:14:11.982Z,97282.38
2023-04-29T07:16:40.214Z,97295.53
2023-04-29T07:19:08.454Z,97294.00
2023-04-29T07:21:36.625Z,97298.13
2023-04-29T07:24:07.042Z,97282.06
2023-04-29T07:26:35.263Z,97283.31
2023-04-29T07:29:03.437Z,97257.91
2023-04-29T07:31:31.755Z,97287.16
2023-04-29T07:34:00.227Z,97269.97
2023-04-29T07:36:28.948Z,97282.22
2023-04-29T07:38:57.125Z,97281.56
2023-04-29T07:41:26.745Z,97284.72
2023-04-29T07:43:54.898Z,97273.16
2023-04-29T07:46:23.607Z,97292.69
2023-04-29T07:48:52.055Z,97233.19
2023-04-29T07:51:20.159Z,97306.47
2023-04-29T07:53:48.361Z,97301.06
2023-04-29T07:56:16.551Z,97293.13
2023-04-29T07:58:46.149Z,97297.00
2023-04-29T08:01:15.700Z,97253.16
2023-04-29T08:03:44.007Z,97298.41
2023-04-29T08:06:12.549Z,97295.03
2023-04-29T08:08:41.231Z,97284.84
2023-04-29T08:11:09.446Z,97302.22
2023-04-29T08:13:37.653Z,97303.25
2023-04-29T08:16:07.704Z,97300.47
2023-04-29T08:18:36.835Z,97300.56
2023-04-29T08:21:05.267Z,97294.44
2023-04-29T08:23:34.277Z,97301.00
2023-04-29T08:26:03.567Z,97307.44
2023-04-29T08:28:31.746Z,97308.38
2023-04-29T08:30:59.975Z,97306.25
2023-04-29T08:33:29.869Z,97311.09
2023-04-29T08:36:03.592Z,97301.19
2023-04-29T08:38:32.113Z,97162.38
2023-04-29T08:41:00.261Z,97298.72
2023-04-29T08:43:28.667Z,97306.41
2023-04-29T08:45:59.256Z,97307.50
2023-04-29T08:48:30.570Z,97318.59
2023-04-29T08:50:59.675Z,97321.53
2023-04-29T08:53:28.150Z,97252.03
2023-04-29T08:55:59.641Z,97326.13
2023-04-29T08:58:31.387Z,97315.66
2023-04-29T09:00:59.727Z,97308.97
2023-04-29T09:03:36.164Z,97237.59
2023-04-29T09:06:06.583Z,97323.47
2023-04-29T09:08:35.360Z,97307.66
2023-04-29T09:11:04.068Z,97282.47
2023-04-29T09:13:33.431Z,97307.41
2023-04-29T09:16:01.681Z,97267.72
2023-04-29T09:18:48.799Z,97298.03
2023-04-29T09:21:21.723Z,97303.47
2023-04-29T09:23:52.436Z,97300.56
2023-04-29T09:26:22.423Z,97301.94
2023-04-29T09:29:08.160Z,97295.06
2023-04-29T09:31:36.939Z,97278.91
2023-04-29T09:34:06.606Z,97304.47
2023-04-29T09:36:40.634Z,97292.19
2023-04-29T09:39:12.640Z,97274.66
2023-04-29T09:41:58.117Z,97284.88
2023-04-29T09:44:28.773Z,97281.25
2023-04-29T09:46:58.518Z,97285.25
2023-04-29T09:49:29.519Z,97290.78
2023-04-29T09:51:59.785Z,97285.22
2023-04-29T09:54:30.670Z,97167.91
2023-04-29T09:57:00.248Z,97281.81
2023-04-29T09:59:28.467Z,97270.16
2023-04-29T10:01:58.596Z,97197.28
2023-04-29T10:04:29.518Z,97270.09
2023-04-29T10:06:58.103Z,97265.97
2023-04-29T10:09:26.320Z,97263.63
2023-04-29T10:11:55.448Z,97256.63
2023-04-29T10:14:25.872Z,97265.34
2023-04-29T10:17:02.740Z,97257.88
2023-04-29T10:19:36.678Z,97251.31
2023-04-29T10:22:11.092Z,97256.66
2023-04-29T10:24:40.836Z,97251.81
2023-04-29T10:27:09.864Z,97247.81
2023-04-29T10:29:39.980Z,97253.53
2023-04-29T10:32:11.219Z,97256.78
2023-04-29T10:34:40.954Z,97242.13
2023-04-29T10:37:11.518Z,97190.00
2023-04-29T10:39:48.692Z,97213.06
2023-04-29T10:42:27.676Z,97230.00
2023-04-29T10:45:21.094Z,97227.69
2023-04-29T10:48:14.507Z,97219.72
2023-04-29T10:51:03.671Z,97218.34
2023-04-29T10:53:31.967Z,97187.47
2023-04-29T10:56:06.979Z,97215.97
2023-04-29T10:58:40.742Z,97220.34
2023-04-29T11:01:11.618Z,97212.88
2023-04-29T11:03:55.246Z,97223.41
2023-04-29T11:06:27.076Z,97207.84
2023-04-29T11:09:05.858Z,97214.31
2023-04-29T11:12:00.695Z,97152.63
2023-04-29T11:14:32.768Z,97211.28
2023-04-29T11:17:02.876Z,97189.88
2023-04-29T11:19:35.748Z,97205.94
2023-04-29T11:22:14.346Z,97189.19
2023-04-29T11:24:53.681Z,97183.47
2023-04-29T11:27:25.712Z,97133.41
2023-04-29T11:32:41.630Z,97174.69
2023-04-29T11:41:15.782Z,97191.94
2023-04-29T11:43:47.077Z,97182.66
2023-04-29T11:46:16.119Z,97132.75
2023-04-29T11:48:48.958Z,97177.44
2023-04-29T11:51:17.917Z,97159.16
2023-04-29T11:53:47.037Z,97178.13
2023-04-29T11:56:16.849Z,97176.94
2023-04-29T11:58:45.737Z,97174.13
2023-04-29T12:01:14.004Z,97135.22
2023-04-29T12:03:45.356Z,97169.97
2023-04-29T12:06:15.131Z,97113.28
2023-04-29T12:08:43.515Z,97109.41
2023-04-29T12:11:11.740Z,97159.09
2023-04-29T12:13:42.022Z,97153.47
2023-04-29T12:16:10.904Z,97156.75
2023-04-29T12:18:39.339Z,97148.53
2023-04-29T12:21:08.052Z,97145.69
2023-04-29T12:23:37.734Z,97133.34
2023-04-29T12:26:06.037Z,97147.03
2023-04-29T12:28:35.068Z,97136.84
2023-04-29T12:31:05.109Z,97120.97
2023-04-29T12:33:33.257Z,97135.38
2023-04-29T12:36:02.235Z,97141.06
2023-04-29T12:38:32.477Z,97134.34
2023-04-29T12:41:01.906Z,97090.03
2023-04-29T12:43:30.868Z,97132.34
2023-04-29T12:46:03.203Z,97131.41
2023-04-29T12:48:33.893Z,97124.81
2023-04-29T12:51:03.261Z,97107.56
2023-04-29T12:53:32.230Z,97117.59
2023-04-29T12:56:00.832Z,97107.69
2023-04-29T12:58:30.717Z,97109.38
2023-04-29T13:00:59.409Z,97043.91
2023-04-29T13:03:28.381Z,97108.00
2023-04-29T13:05:59.242Z,97105.91
2023-04-29T13:08:27.550Z,97108.19
2023-04-29T13:10:55.724Z,97096.84
2023-04-29T13:13:29.145Z,97107.09
2023-04-29T13:15:57.394Z,97116.22
2023-04-29T13:23:57.445Z,97115.81
2023-04-29T13:26:27.360Z,97117.41
2023-04-29T13:28:55.463Z,97084.34
2023-04-29T13:31:23.668Z,97107.59
2023-04-29T13:33:53.966Z,97109.16
2023-04-29T13:36:22.417Z,97110.75
2023-04-29T13:38:55.047Z,97108.44
2023-04-29T13:41:26.738Z,97099.81
2023-04-29T13:43:58.012Z,96996.09
2023-04-29T13:46:27.479Z,97106.75
2023-04-29T14:07:52.261Z,97122.63
2023-04-29T14:10:22.049Z,97081.44
2023-04-29T14:12:50.157Z,97122.41
2023-04-29T14:15:18.421Z,97115.28
2023-04-29T14:17:46.709Z,97132.09
2023-04-29T14:20:15.255Z,97132.56
2023-04-29T14:22:43.606Z,97126.38
2023-04-29T14:25:12.520Z,97135.47
2023-04-29T14:27:42.161Z,97126.69
2023-04-29T14:30:11.669Z,97141.41
2023-04-29T14:32:39.789Z,97130.09
2023-04-29T14:37:50.595Z,96944.59
2023-04-29T14:49:01.210Z,97189.81
2023-04-29T14:51:29.775Z,97062.28
2023-04-29T14:53:57.981Z,97059.38
2023-04-29T14:56:26.216Z,97178.75
2023-04-29T14:58:54.426Z,97162.13
2023-04-29T15:01:22.669Z,97159.84
2023-04-29T15:03:50.909Z,97060.66
2023-04-29T15:06:20.699Z,97162.56
2023-04-29T15:08:48.924Z,97153.81
2023-04-29T15:11:17.228Z,97152.78
2023-04-29T15:13:45.405Z,97154.72
2023-04-29T15:16:13.747Z,97142.41
2023-04-29T15:18:45.526Z,97052.03
2023-04-29T15:21:14.104Z,97151.34
2023-04-29T15:23:43.762Z,97062.56
2023-04-29T15:26:12.034Z,97122.09
2023-04-29T15:28:40.590Z,97146.66
2023-04-29T15:31:08.747Z,97134.75
2023-04-29T15:33:36.930Z,97135.34
2023-04-29T15:36:05.543Z,97138.78
2023-04-29T15:38:33.769Z,97132.06
2023-04-29T15:41:04.062Z,97120.38
2023-04-29T15:43:33.309Z,97091.47
2023-04-29T15:46:01.564Z,97131.66
2023-04-29T15:48:29.696Z,97128.03
2023-04-29T15:50:57.922Z,97139.66
2023-04-29T15:53:26.200Z,97043.72
2023-04-29T15:55:55.175Z,97137.25
2023-04-29T15:58:24.759Z,97134.81
2023-04-29T16:00:52.972Z,97132.94
2023-04-29T16:03:21.362Z,97135.38
2023-04-29T16:11:13.924Z,96924.06
2023-04-29T16:13:43.449Z,97143.72
2023-04-29T16:16:11.856Z,97150.97
2023-04-29T16:18:40.068Z,97154.34
2023-04-29T16:21:08.851Z,97040.31
2023-04-29T16:23:37.088Z,97147.47
2023-04-29T16:26:05.456Z,97162.34
2023-04-29T16:31:19.324Z,96922.53
2023-04-29T16:33:47.730Z,97173.41
2023-04-29T16:36:15.850Z,97175.28
2023-04-29T16:38:44.087Z,97165.28
2023-04-29T16:41:12.222Z,97145.47
2023-04-29T16:43:40.376Z,97183.91
2023-04-29T16:46:08.934Z,97114.13
2023-04-29T16:48:38.662Z,97190.09
2023-04-29T16:51:07.027Z,97149.94
2023-04-29T16:53:35.288Z,97193.72
2023-04-29T16:56:03.440Z,97195.53
2023-04-29T16:58:31.642Z,97206.97
2023-04-29T17:00:59.889Z,97158.94
2023-04-29T17:03:28.178Z,97205.13
2023-04-29T17:05:57.828Z,97195.06
2023-04-29T17:08:26.264Z,97222.44
2023-04-29T17:10:54.684Z,97227.44
2023-04-29T17:13:22.858Z,97224.22
2023-04-29T17:15:51.546Z,97209.53
2023-04-29T17:18:20.849Z,97185.25
2023-04-29T17:20:50.843Z,97231.28
2023-04-29T17:23:20.902Z,97121.34
2023-04-29T17:25:49.106Z,97240.81
2023-04-29T17:28:17.267Z,97238.06
2023-04-29T17:30:45.489Z,97243.28
2023-04-29T17:33:14.265Z,97228.81
2023-04-29T17:35:42.438Z,97258.75
2023-04-29T17:38:12.089Z,97256.97
2023-04-29T17:40:41.675Z,97253.09
2023-04-29T17:43:09.886Z,97260.16
2023-04-29T17:45:41.671Z,97254.28
2023-04-29T17:48:10.261Z,97257.38
2023-04-29T17:50:39.423Z,97258.69
2023-04-29T17:53:07.591Z,97274.47
2023-04-29T17:55:35.849Z,97280.88
2023-04-29T17:58:05.466Z,97281.88
2023-04-29T18:00:35.101Z,97250.69
2023-04-29T18:03:03.507Z,97281.13
2023-04-29T18:05:31.955Z,97275.00
2023-04-29T18:08:00.113Z,97296.09
2023-04-29T18:10:28.351Z,97286.41
2023-04-29T18:12:56.732Z,97217.84
2023-04-29T18:15:26.399Z,97290.31
2023-04-29T18:17:54.676Z,97292.22
2023-04-29T18:20:23.053Z,97297.19
2023-04-29T18:22:51.515Z,97257.25
2023-04-29T18:25:19.646Z,97255.81
2023-04-29T18:27:48.121Z,97297.34
2023-04-29T18:30:16.295Z,97261.69
2023-04-29T18:32:45.874Z,97283.41
2023-04-29T18:35:14.204Z,97304.84
2023-04-29T18:37:42.408Z,97313.34
2023-04-29T18:40:11.580Z,97323.63
2023-04-29T18:42:39.876Z,97310.59
2023-04-29T18:45:09.427Z,97325.56
2023-04-29T18:47:37.953Z,97323.97
2023-04-29T18:50:08.642Z,97327.19
2023-04-29T18:52:36.941Z,97332.47
2023-04-29T18:55:06.096Z,97318.13
2023-04-29T18:57:34.331Z,97336.25
2023-04-29T19:00:03.887Z,97313.25
2023-04-29T19:02:32.057Z,97335.84
2023-04-29T19:05:02.857Z,97330.59
2023-04-29T19:07:32.575Z,97321.34
2023-04-29T19:10:02.505Z,97302.09
2023-04-29T19:12:31.112Z,97338.19
2023-04-29T19:14:59.295Z,97317.53
2023-04-29T19:17:27.573Z,97329.41
2023-04-29T19:19:56.012Z,97331.81
2023-04-29T19:22:24.413Z,97354.41
2023-04-29T19:24:53.991Z,97331.00
2023-04-29T19:27:22.181Z,97225.31
2023-04-29T19:29:50.379Z,97379.28
2023-04-29T19:32:19.861Z,97366.06
2023-04-29T19:34:48.243Z,97392.72
2023-04-29T19:37:16.379Z,97381.94
2023-04-29T19:39:44.533Z,97397.28
2023-04-29T19:42:14.165Z,97354.50
2023-04-29T19:44:42.741Z,97396.13
2023-04-29T19:47:11.037Z,97391.94
2023-04-29T19:49:39.631Z,97408.72
2023-04-29T19:52:08.313Z,97393.66
2023-04-29T19:54:37.164Z,97347.41
2023-04-29T19:57:05.384Z,97415.22
2023-04-29T19:59:34.978Z,97419.44
2023-04-29T20:02:03.251Z,97419.25
2023-04-29T20:04:31.424Z,97419.84
2023-04-29T20:06:59.639Z,97431.69
2023-04-29T20:09:27.859Z,97429.75
2023-04-29T20:11:56.420Z,97418.56
2023-04-29T20:14:24.593Z,97439.94
2023-04-29T20:16:54.329Z,97396.09
2023-04-29T20:19:22.561Z,97448.63
2023-04-29T20:21:51.122Z,97414.56
2023-04-29T20:24:19.340Z,97445.97
2023-04-29T20:26:47.740Z,97443.34
2023-04-29T20:29:15.912Z,97442.69
2023-04-29T20:31:44.176Z,97396.69
2023-04-29T20:34:13.728Z,97427.25
2023-04-29T20:36:41.953Z,97427.53
2023-04-29T20:39:10.897Z,97436.03
2023-04-29T20:41:39.056Z,97434.31
2023-04-29T20:44:07.262Z,97449.34
2023-04-29T20:46:35.413Z,97454.53
2023-04-29T20:49:04.711Z,97406.06
2023-04-29T20:51:34.210Z,97429.88
2023-04-29T20:54:02.281Z,97460.19
2023-04-29T20:56:30.457Z,97444.88
2023-04-29T20:58:59.742Z,97457.28
2023-04-29T21:01:28.119Z,97464.63
2023-04-29T21:03:56.282Z,97449.16
2023-04-29T21:06:27.359Z,97477.59
2023-04-29T21:08:57.098Z,97474.03
2023-04-29T21:11:25.218Z,97476.91
2023-04-29T21:13:53.426Z,97457.16
2023-04-29T21:16:21.839Z,97459.09
2023-04-29T21:18:50.138Z,97463.69
2023-04-29T21:21:18.178Z,97467.28
2023-04-29T21:23:46.340Z,97481.97
2023-04-29T21:26:16.094Z,97476.06
2023-04-29T21:28:44.388Z,97481.19
2023-04-29T21:31:16.351Z,97441.91
2023-04-29T21:33:44.781Z,97469.34
2023-04-29T21:36:12.972Z,97487.75
2023-04-29T21:38:42.924Z,97492.25
2023-04-29T21:41:22.715Z,97432.53
2023-04-29T21:43:51.840Z,97490.75
2023-04-29T21:46:21.044Z,97467.69
2023-04-29T21:48:49.304Z,97488.66
2023-04-29T21:51:19.159Z,97493.50
2023-04-29T21:53:47.339Z,97497.84
2023-04-29T21:56:15.521Z,97503.25
2023-04-29T21:58:45.406Z,97398.38
2023-04-29T22:01:26.710Z,97524.75
2023-04-29T22:03:55.367Z,97492.66
2023-04-29T22:06:24.071Z,97503.47
2023-04-29T22:08:52.353Z,97493.13
2023-04-29T22:11:21.666Z,97502.94
2023-04-29T22:13:51.323Z,97513.31
2023-04-29T22:16:19.935Z,97516.03
2023-04-29T22:18:48.301Z,97518.25
2023-04-29T22:21:16.508Z,97528.06
2023-04-29T22:23:45.000Z,97507.75
2023-04-29T22:26:13.149Z,97525.88
2023-04-29T22:28:41.301Z,97525.94
2023-04-29T22:31:10.909Z,97517.34
2023-04-29T22:33:39.164Z,97517.34
2023-04-29T22:36:07.928Z,97519.28
2023-04-29T22:38:37.933Z,97507.72
2023-04-29T22:41:09.715Z,97520.09
2023-04-29T22:43:37.828Z,97516.66
2023-04-29T22:46:06.210Z,97531.59
2023-04-29T22:48:35.920Z,97535.31
2023-04-29T22:51:04.105Z,97533.63
2023-04-29T22:53:32.314Z,97525.72
2023-04-29T22:56:01.998Z,97527.50
2023-04-29T22:58:30.193Z,97532.75
2023-04-29T23:00:58.860Z,97499.06
2023-04-29T23:03:27.975Z,97537.44
2023-04-29T23:06:01.279Z,97542.00
2023-04-29T23:08:29.764Z,97532.22
2023-04-29T23:10:57.942Z,97545.94
2023-04-29T23:13:26.083Z,97415.81
2023-04-29T23:15:57.455Z,97535.28
2023-04-29T23:18:25.635Z,97532.50
2023-04-29T23:20:53.845Z,97537.81
2023-04-29T23:23:23.425Z,97499.53
2023-04-29T23:25:51.685Z,97541.69
2023-04-29T23:28:19.884Z,97412.25
2023-04-29T23:30:48.490Z,97523.59
2023-04-29T23:33:16.757Z,97537.34
2023-04-29T23:35:50.573Z,97499.06
2023-04-29T23:38:18.896Z,97439.91
2023-04-29T23:40:48.693Z,97542.13
2023-04-29T23:43:16.883Z,97527.03
2023-04-29T23:45:46.311Z,97498.72
2023-04-29T23:48:15.796Z,97526.19
2023-04-29T23:50:43.947Z,97504.06
2023-04-29T23:53:12.220Z,97518.53
2023-04-29T23:55:40.410Z,97521.72
2023-04-29T23:58:09.974Z,97524.13
